Aurelia, Iowa
Current Conditions -  °F | °C
As of 4:15 AM on Friday 24 Oct 2014 (Local Time) from KCKP Reporting Station
Clear Clear  
Wind Chill: 53°   Ceiling: Unl
Heat Index: 53°   Visibility: 10mi
Dew Point: 50°   Wind: 6mph
Humidity: 91%   Direction: 170°S
Pressure: 29.92"   Gusts: NA
Location:  42.71°N, 95.44°W
Report Text: KCKP 240915Z AUTO 17005KT 10SM CLR 12/10 A2992 RMK AO2 T01150101
Loading
Personal Weather Stations






























Interactive Weather Map
Tropical Storm Tracking
New forecast layout! Learn more

10-Day Weather Forecast

Advertisements
Track Severe Weather on mobile